Terminal Aerodrome Forecast
Issued by NWS

Home | Current Version | Previous Version | Graphics & Text | Print | Product List | Glossary On
Versions: 1 2 3 4 5 6 7 8 9 10 11 12 13 14 15 16 17 18 19 20 21
000
FTUS43 KGRB 270314 AAB
TAFMTW
TAF AMD
KMTW 270314Z 2703/2724 21011G18KT P6SM BKN025 BKN040 WS015/24040KT
     FM271000 25013G20KT P6SM VCSH SCT015 BKN035
      TEMPO 2711/2715 5SM -SHRA BR BKN015
     FM271600 27012G18KT P6SM SCT020 BKN035
     FM272000 20009KT P6SM BKN035=

USA.gov is the U.S. government's official web portal to all federal, state and local government web resources and services.